sensor_id;sensor_type;location;lat;lon;timestamp;temperature;humidity
8965;DHT22;4517;49.020;12.066;2023-04-29T00:01:05;10.10;99.90
8965;DHT22;4517;49.020;12.066;2023-04-29T00:03:30;10.20;99.90
8965;DHT22;4517;49.020;12.066;2023-04-29T00:05:57;10.30;99.90
8965;DHT22;4517;49.020;12.066;2023-04-29T00:08:23;10.30;99.90
8965;DHT22;4517;49.020;12.066;2023-04-29T00:10:49;10.40;99.90
8965;DHT22;4517;49.020;12.066;2023-04-29T00:13:15;10.40;99.90
8965;DHT22;4517;49.020;12.066;2023-04-29T00:15:41;10.40;99.90
8965;DHT22;4517;49.020;12.066;2023-04-29T00:18:07;10.40;99.90
8965;DHT22;4517;49.020;12.066;2023-04-29T00:20:35;10.40;99.90
8965;DHT22;4517;49.020;12.066;2023-04-29T00:23:02;10.40;99.90
8965;DHT22;4517;49.020;12.066;2023-04-29T00:25:28;10.30;99.90
8965;DHT22;4517;49.020;12.066;2023-04-29T00:27:53;10.30;99.90
8965;DHT22;4517;49.020;12.066;2023-04-29T00:30:19;10.30;99.90
8965;DHT22;4517;49.020;12.066;2023-04-29T00:32:44;10.20;99.90
8965;DHT22;4517;49.020;12.066;2023-04-29T00:35:10;10.20;99.90
8965;DHT22;4517;49.020;12.066;2023-04-29T00:37:36;10.20;99.90
8965;DHT22;4517;49.020;12.066;2023-04-29T00:40:02;10.20;99.90
8965;DHT22;4517;49.020;12.066;2023-04-29T00:42:30;10.30;99.90
8965;DHT22;4517;49.020;12.066;2023-04-29T00:44:57;10.20;99.90
8965;DHT22;4517;49.020;12.066;2023-04-29T00:47:23;10.20;99.90
8965;DHT22;4517;49.020;12.066;2023-04-29T00:49:48;10.20;99.90
8965;DHT22;4517;49.020;12.066;2023-04-29T00:52:14;10.10;99.90
8965;DHT22;4517;49.020;12.066;2023-04-29T00:54:41;10.10;99.90
8965;DHT22;4517;49.020;12.066;2023-04-29T00:57:06;10.10;99.90
8965;DHT22;4517;49.020;12.066;2023-04-29T00:59:32;10.10;99.90
8965;DHT22;4517;49.020;12.066;2023-04-29T01:02:00;10.10;99.90
8965;DHT22;4517;49.020;12.066;2023-04-29T01:04:26;10.10;99.90
8965;DHT22;4517;49.020;12.066;2023-04-29T01:07:13;10.10;99.90
8965;DHT22;4517;49.020;12.066;2023-04-29T01:09:52;10.10;99.90
8965;DHT22;4517;49.020;12.066;2023-04-29T01:15:03;10.10;99.90
8965;DHT22;4517;49.020;12.066;2023-04-29T01:18:15;10.10;99.90
8965;DHT22;4517;49.020;12.066;2023-04-29T01:20:21;10.20;99.90
8965;DHT22;4517;49.020;12.066;2023-04-29T01:22:47;10.20;99.90
8965;DHT22;4517;49.020;12.066;2023-04-29T01:25:13;10.20;99.90
8965;DHT22;4517;49.020;12.066;2023-04-29T01:36:56;10.30;99.90
8965;DHT22;4517;49.020;12.066;2023-04-29T01:45:06;10.30;99.90
8965;DHT22;4517;49.020;12.066;2023-04-29T01:47:32;10.30;99.90
8965;DHT22;4517;49.020;12.066;2023-04-29T01:49:58;10.30;99.90
8965;DHT22;4517;49.020;12.066;2023-04-29T01:52:24;10.30;99.90
8965;DHT22;4517;49.020;12.066;2023-04-29T01:54:49;10.30;99.90
8965;DHT22;4517;49.020;12.066;2023-04-29T01:57:15;10.30;99.90
8965;DHT22;4517;49.020;12.066;2023-04-29T01:59:41;10.30;99.90
8965;DHT22;4517;49.020;12.066;2023-04-29T02:02:06;10.30;99.90
8965;DHT22;4517;49.020;12.066;2023-04-29T02:04:34;10.30;99.90
8965;DHT22;4517;49.020;12.066;2023-04-29T02:06:59;10.20;99.90
8965;DHT22;4517;49.020;12.066;2023-04-29T02:09:26;10.20;99.90
8965;DHT22;4517;49.020;12.066;2023-04-29T02:11:51;10.20;99.90
8965;DHT22;4517;49.020;12.066;2023-04-29T02:14:17;10.20;99.90
8965;DHT22;4517;49.020;12.066;2023-04-29T02:16:43;10.20;99.90
8965;DHT22;4517;49.020;12.066;2023-04-29T02:19:10;10.20;99.90
8965;DHT22;4517;49.020;12.066;2023-04-29T02:21:35;10.20;99.90
8965;DHT22;4517;49.020;12.066;2023-04-29T02:24:01;10.20;99.90
8965;DHT22;4517;49.020;12.066;2023-04-29T02:26:27;10.30;99.90
8965;DHT22;4517;49.020;12.066;2023-04-29T02:28:52;10.40;99.90
8965;DHT22;4517;49.020;12.066;2023-04-29T02:31:19;10.40;99.90
8965;DHT22;4517;49.020;12.066;2023-04-29T02:33:44;10.30;99.90
8965;DHT22;4517;49.020;12.066;2023-04-29T02:36:10;10.30;99.90
8965;DHT22;4517;49.020;12.066;2023-04-29T02:38:35;10.30;99.90
8965;DHT22;4517;49.020;12.066;2023-04-29T02:41:01;10.30;99.90
8965;DHT22;4517;49.020;12.066;2023-04-29T02:43:27;10.30;99.90
8965;DHT22;4517;49.020;12.066;2023-04-29T02:45:55;10.30;99.90
8965;DHT22;4517;49.020;12.066;2023-04-29T02:48:21;10.30;99.90
8965;DHT22;4517;49.020;12.066;2023-04-29T02:50:46;10.30;99.90
8965;DHT22;4517;49.020;12.066;2023-04-29T02:53:12;10.30;99.90
8965;DHT22;4517;49.020;12.066;2023-04-29T02:55:37;10.30;99.90
8965;DHT22;4517;49.020;12.066;2023-04-29T02:58:03;10.30;99.90
8965;DHT22;4517;49.020;12.066;2023-04-29T03:00:28;10.30;99.90
8965;DHT22;4517;49.020;12.066;2023-04-29T03:02:54;10.30;99.90
8965;DHT22;4517;49.020;12.066;2023-04-29T03:05:19;10.30;99.90
8965;DHT22;4517;49.020;12.066;2023-04-29T03:07:45;10.30;99.90
8965;DHT22;4517;49.020;12.066;2023-04-29T03:10:10;10.30;99.90
8965;DHT22;4517;49.020;12.066;2023-04-29T03:12:36;10.30;99.90
8965;DHT22;4517;49.020;12.066;2023-04-29T03:15:05;10.20;99.90
8965;DHT22;4517;49.020;12.066;2023-04-29T03:17:31;10.20;99.90
8965;DHT22;4517;49.020;12.066;2023-04-29T03:19:58;10.30;99.90
8965;DHT22;4517;49.020;12.066;2023-04-29T03:22:23;10.30;99.90
8965;DHT22;4517;49.020;12.066;2023-04-29T03:24:49;10.40;99.90
8965;DHT22;4517;49.020;12.066;2023-04-29T03:27:14;10.40;99.90
8965;DHT22;4517;49.020;12.066;2023-04-29T03:29:40;10.40;99.90
8965;DHT22;4517;49.020;12.066;2023-04-29T03:32:06;10.40;99.90
8965;DHT22;4517;49.020;12.066;2023-04-29T03:34:31;10.40;99.90
8965;DHT22;4517;49.020;12.066;2023-04-29T03:36:57;10.50;99.90
8965;DHT22;4517;49.020;12.066;2023-04-29T03:39:23;10.50;99.90
8965;DHT22;4517;49.020;12.066;2023-04-29T03:41:48;10.50;99.90
8965;DHT22;4517;49.020;12.066;2023-04-29T03:44:14;10.50;99.90
8965;DHT22;4517;49.020;12.066;2023-04-29T03:46:40;10.50;99.90
8965;DHT22;4517;49.020;12.066;2023-04-29T03:49:05;10.50;99.90
8965;DHT22;4517;49.020;12.066;2023-04-29T03:51:31;10.50;99.90
8965;DHT22;4517;49.020;12.066;2023-04-29T03:53:57;10.50;99.90
8965;DHT22;4517;49.020;12.066;2023-04-29T03:56:23;10.50;99.90
8965;DHT22;4517;49.020;12.066;2023-04-29T03:58:52;10.50;99.90
8965;DHT22;4517;49.020;12.066;2023-04-29T04:01:18;10.60;99.90
8965;DHT22;4517;49.020;12.066;2023-04-29T04:03:44;10.60;99.90
8965;DHT22;4517;49.020;12.066;2023-04-29T04:06:10;10.60;99.90
8965;DHT22;4517;49.020;12.066;2023-04-29T04:08:35;10.60;99.90
8965;DHT22;4517;49.020;12.066;2023-04-29T04:11:01;10.60;99.90
8965;DHT22;4517;49.020;12.066;2023-04-29T04:13:29;10.60;99.90
8965;DHT22;4517;49.020;12.066;2023-04-29T04:15:55;10.50;99.90
8965;DHT22;4517;49.020;12.066;2023-04-29T04:18:21;10.40;99.90
8965;DHT22;4517;49.020;12.066;2023-04-29T04:20:46;10.40;99.90
8965;DHT22;4517;49.020;12.066;2023-04-29T04:23:12;10.40;99.90
8965;DHT22;4517;49.020;12.066;2023-04-29T04:25:43;10.40;99.90
8965;DHT22;4517;49.020;12.066;2023-04-29T04:28:09;10.40;99.90
8965;DHT22;4517;49.020;12.066;2023-04-29T04:30:35;10.40;99.90
8965;DHT22;4517;49.020;12.066;2023-04-29T04:33:00;10.40;99.90
8965;DHT22;4517;49.020;12.066;2023-04-29T04:35:26;10.40;99.90
8965;DHT22;4517;49.020;12.066;2023-04-29T04:37:52;10.50;99.90
8965;DHT22;4517;49.020;12.066;2023-04-29T04:40:17;10.60;99.90
8965;DHT22;4517;49.020;12.066;2023-04-29T04:42:43;10.70;99.90
8965;DHT22;4517;49.020;12.066;2023-04-29T04:45:09;10.70;99.90
8965;DHT22;4517;49.020;12.066;2023-04-29T04:47:35;10.70;99.90
8965;DHT22;4517;49.020;12.066;2023-04-29T04:50:01;10.70;99.90
8965;DHT22;4517;49.020;12.066;2023-04-29T04:52:28;10.60;99.90
8965;DHT22;4517;49.020;12.066;2023-04-29T04:54:54;10.70;99.90
8965;DHT22;4517;49.020;12.066;2023-04-29T04:57:19;12.80;99.90
8965;DHT22;4517;49.020;12.066;2023-04-29T04:59:45;13.60;99.90
8965;DHT22;4517;49.020;12.066;2023-04-29T05:02:10;12.90;99.90
8965;DHT22;4517;49.020;12.066;2023-04-29T05:04:36;12.50;99.90
8965;DHT22;4517;49.020;12.066;2023-04-29T05:07:02;12.80;99.90
8965;DHT22;4517;49.020;12.066;2023-04-29T05:09:27;13.40;99.90
8965;DHT22;4517;49.020;12.066;2023-04-29T05:11:53;13.60;99.90
8965;DHT22;4517;49.020;12.066;2023-04-29T05:14:18;13.30;99.90
8965;DHT22;4517;49.020;12.066;2023-04-29T05:16:44;12.80;99.90
8965;DHT22;4517;49.020;12.066;2023-04-29T05:19:11;12.30;99.90
8965;DHT22;4517;49.020;12.066;2023-04-29T05:21:37;12.00;99.90
8965;DHT22;4517;49.020;12.066;2023-04-29T05:24:02;12.40;99.90
8965;DHT22;4517;49.020;12.066;2023-04-29T05:26:28;12.40;99.90
8965;DHT22;4517;49.020;12.066;2023-04-29T05:28:54;12.10;99.90
8965;DHT22;4517;49.020;12.066;2023-04-29T05:31:20;12.20;99.90
8965;DHT22;4517;49.020;12.066;2023-04-29T05:33:45;12.30;99.90
8965;DHT22;4517;49.020;12.066;2023-04-29T05:36:11;12.90;99.90
8965;DHT22;4517;49.020;12.066;2023-04-29T05:38:37;13.80;99.90
8965;DHT22;4517;49.020;12.066;2023-04-29T05:41:02;13.40;99.90
8965;DHT22;4517;49.020;12.066;2023-04-29T05:43:28;13.30;99.90
8965;DHT22;4517;49.020;12.066;2023-04-29T05:45:54;13.40;99.90
8965;DHT22;4517;49.020;12.066;2023-04-29T05:48:20;13.30;99.90
8965;DHT22;4517;49.020;12.066;2023-04-29T05:50:46;13.10;99.90
8965;DHT22;4517;49.020;12.066;2023-04-29T05:53:12;13.10;99.90
8965;DHT22;4517;49.020;12.066;2023-04-29T05:55:38;13.10;99.90
8965;DHT22;4517;49.020;12.066;2023-04-29T05:58:04;13.30;99.90
8965;DHT22;4517;49.020;12.066;2023-04-29T06:00:30;14.20;99.90
8965;DHT22;4517;49.020;12.066;2023-04-29T06:02:56;14.00;99.90
8965;DHT22;4517;49.020;12.066;2023-04-29T06:05:22;13.90;99.90
8965;DHT22;4517;49.020;12.066;2023-04-29T06:07:48;13.90;99.90
8965;DHT22;4517;49.020;12.066;2023-04-29T06:10:14;13.90;99.90
8965;DHT22;4517;49.020;12.066;2023-04-29T06:12:39;13.70;99.90
8965;DHT22;4517;49.020;12.066;2023-04-29T06:15:05;13.70;99.90
8965;DHT22;4517;49.020;12.066;2023-04-29T06:17:31;13.60;99.90
8965;DHT22;4517;49.020;12.066;2023-04-29T06:19:57;14.00;99.90
8965;DHT22;4517;49.020;12.066;2023-04-29T06:22:22;14.80;99.90
8965;DHT22;4517;49.020;12.066;2023-04-29T06:24:49;15.30;99.90
8965;DHT22;4517;49.020;12.066;2023-04-29T06:27:15;15.50;99.90
8965;DHT22;4517;49.020;12.066;2023-04-29T06:29:41;15.40;99.90
8965;DHT22;4517;49.020;12.066;2023-04-29T06:32:07;15.90;99.90
8965;DHT22;4517;49.020;12.066;2023-04-29T06:34:32;16.60;99.90
8965;DHT22;4517;49.020;12.066;2023-04-29T06:36:58;16.60;99.90
8965;DHT22;4517;49.020;12.066;2023-04-29T06:39:24;16.50;99.90
8965;DHT22;4517;49.020;12.066;2023-04-29T06:41:49;16.80;99.90
8965;DHT22;4517;49.020;12.066;2023-04-29T06:44:16;17.00;99.90
8965;DHT22;4517;49.020;12.066;2023-04-29T06:46:43;17.40;99.90
8965;DHT22;4517;49.020;12.066;2023-04-29T06:49:08;17.40;99.90
8965;DHT22;4517;49.020;12.066;2023-04-29T06:51:35;17.20;99.90
8965;DHT22;4517;49.020;12.066;2023-04-29T06:54:01;17.20;99.90
8965;DHT22;4517;49.020;12.066;2023-04-29T06:56:26;17.30;99.90
8965;DHT22;4517;49.020;12.066;2023-04-29T06:58:52;17.50;99.90
8965;DHT22;4517;49.020;12.066;2023-04-29T07:01:18;17.80;99.90
8965;DHT22;4517;49.020;12.066;2023-04-29T07:03:43;18.10;99.90
8965;DHT22;4517;49.020;12.066;2023-04-29T07:06:09;18.40;99.90
8965;DHT22;4517;49.020;12.066;2023-04-29T07:08:35;18.70;99.90
8965;DHT22;4517;49.020;12.066;2023-04-29T07:11:00;18.80;99.90
8965;DHT22;4517;49.020;12.066;2023-04-29T07:13:26;18.30;99.90
8965;DHT22;4517;49.020;12.066;2023-04-29T07:15:51;17.70;99.90
8965;DHT22;4517;49.020;12.066;2023-04-29T07:18:17;18.10;99.90
8965;DHT22;4517;49.020;12.066;2023-04-29T07:20:43;18.60;99.90
8965;DHT22;4517;49.020;12.066;2023-04-29T07:23:08;18.80;99.90
8965;DHT22;4517;49.020;12.066;2023-04-29T07:25:34;18.80;99.90
8965;DHT22;4517;49.020;12.066;2023-04-29T07:28:00;18.20;99.90
8965;DHT22;4517;49.020;12.066;2023-04-29T07:30:25;18.30;99.90
8965;DHT22;4517;49.020;12.066;2023-04-29T07:32:51;18.20;99.90
8965;DHT22;4517;49.020;12.066;2023-04-29T07:35:17;17.90;99.90
8965;DHT22;4517;49.020;12.066;2023-04-29T07:37:43;17.90;99.90
8965;DHT22;4517;49.020;12.066;2023-04-29T07:40:10;17.60;99.90
8965;DHT22;4517;49.020;12.066;2023-04-29T07:42:36;17.30;99.90
8965;DHT22;4517;49.020;12.066;2023-04-29T07:45:02;17.00;99.90
8965;DHT22;4517;49.020;12.066;2023-04-29T07:47:27;16.80;99.90
8965;DHT22;4517;49.020;12.066;2023-04-29T07:49:55;16.80;99.90
8965;DHT22;4517;49.020;12.066;2023-04-29T07:52:21;16.70;99.90
8965;DHT22;4517;49.020;12.066;2023-04-29T07:54:47;17.00;99.90
8965;DHT22;4517;49.020;12.066;2023-04-29T07:57:14;17.20;99.90
8965;DHT22;4517;49.020;12.066;2023-04-29T07:59:40;17.50;99.90
8965;DHT22;4517;49.020;12.066;2023-04-29T08:02:05;17.70;99.90
8965;DHT22;4517;49.020;12.066;2023-04-29T08:04:31;18.30;99.90
8965;DHT22;4517;49.020;12.066;2023-04-29T08:06:56;18.60;99.90
8965;DHT22;4517;49.020;12.066;2023-04-29T08:09:23;18.70;99.90
8965;DHT22;4517;49.020;12.066;2023-04-29T08:11:48;18.50;99.90
8965;DHT22;4517;49.020;12.066;2023-04-29T08:14:14;18.20;99.90
8965;DHT22;4517;49.020;12.066;2023-04-29T08:16:39;17.90;99.90
8965;DHT22;4517;49.020;12.066;2023-04-29T08:19:05;17.60;99.90
8965;DHT22;4517;49.020;12.066;2023-04-29T08:21:31;17.20;99.90
8965;DHT22;4517;49.020;12.066;2023-04-29T08:23:57;17.20;99.90
8965;DHT22;4517;49.020;12.066;2023-04-29T08:26:22;17.20;99.90
8965;DHT22;4517;49.020;12.066;2023-04-29T08:28:48;17.50;99.90
8965;DHT22;4517;49.020;12.066;2023-04-29T08:31:18;18.00;99.90
8965;DHT22;4517;49.020;12.066;2023-04-29T08:33:45;18.00;99.90
8965;DHT22;4517;49.020;12.066;2023-04-29T08:36:11;18.40;99.90
8965;DHT22;4517;49.020;12.066;2023-04-29T08:38:37;18.60;99.90
8965;DHT22;4517;49.020;12.066;2023-04-29T08:41:02;18.70;99.90
8965;DHT22;4517;49.020;12.066;2023-04-29T08:43:28;18.90;99.90
8965;DHT22;4517;49.020;12.066;2023-04-29T08:45:57;18.90;99.90
8965;DHT22;4517;49.020;12.066;2023-04-29T08:48:24;19.00;99.90
8965;DHT22;4517;49.020;12.066;2023-04-29T08:50:50;19.40;99.90
8965;DHT22;4517;49.020;12.066;2023-04-29T08:53:16;19.50;99.90
8965;DHT22;4517;49.020;12.066;2023-04-29T08:55:44;19.30;99.90
8965;DHT22;4517;49.020;12.066;2023-04-29T08:58:14;18.90;99.90
8965;DHT22;4517;49.020;12.066;2023-04-29T09:00:41;18.70;99.90
8965;DHT22;4517;49.020;12.066;2023-04-29T09:03:15;18.60;99.90
8965;DHT22;4517;49.020;12.066;2023-04-29T09:05:42;18.40;99.90
8965;DHT22;4517;49.020;12.066;2023-04-29T09:08:10;18.10;99.90
8965;DHT22;4517;49.020;12.066;2023-04-29T09:10:38;17.80;99.90
8965;DHT22;4517;49.020;12.066;2023-04-29T09:13:05;17.60;99.90
8965;DHT22;4517;49.020;12.066;2023-04-29T09:15:35;17.60;99.90
8965;DHT22;4517;49.020;12.066;2023-04-29T09:18:01;17.60;99.90
8965;DHT22;4517;49.020;12.066;2023-04-29T09:20:28;17.90;99.90
8965;DHT22;4517;49.020;12.066;2023-04-29T09:22:59;18.10;99.90
8965;DHT22;4517;49.020;12.066;2023-04-29T09:25:26;18.10;99.90
8965;DHT22;4517;49.020;12.066;2023-04-29T09:27:53;18.30;99.90
8965;DHT22;4517;49.020;12.066;2023-04-29T09:30:18;18.70;99.90
8965;DHT22;4517;49.020;12.066;2023-04-29T09:32:45;18.80;99.90
8965;DHT22;4517;49.020;12.066;2023-04-29T09:35:25;18.90;99.90
8965;DHT22;4517;49.020;12.066;2023-04-29T09:37:52;18.90;99.90
8965;DHT22;4517;49.020;12.066;2023-04-29T09:40:31;18.90;99.90
8965;DHT22;4517;49.020;12.066;2023-04-29T09:42:58;18.90;99.90
8965;DHT22;4517;49.020;12.066;2023-04-29T09:45:33;19.00;99.90
8965;DHT22;4517;49.020;12.066;2023-04-29T09:48:04;19.20;99.90
8965;DHT22;4517;49.020;12.066;2023-04-29T09:50:33;19.40;99.90
8965;DHT22;4517;49.020;12.066;2023-04-29T09:53:01;19.40;99.90
8965;DHT22;4517;49.020;12.066;2023-04-29T09:55:27;19.50;99.90
8965;DHT22;4517;49.020;12.066;2023-04-29T09:57:54;19.30;99.90
8965;DHT22;4517;49.020;12.066;2023-04-29T10:00:20;19.30;99.90
8965;DHT22;4517;49.020;12.066;2023-04-29T10:02:47;19.00;99.90
8965;DHT22;4517;49.020;12.066;2023-04-29T10:05:15;18.90;99.90
8965;DHT22;4517;49.020;12.066;2023-04-29T10:07:41;18.90;99.90
8965;DHT22;4517;49.020;12.066;2023-04-29T10:10:08;18.90;99.90
8965;DHT22;4517;49.020;12.066;2023-04-29T10:12:36;18.80;99.90
8965;DHT22;4517;49.020;12.066;2023-04-29T10:17:43;18.80;99.90
8965;DHT22;4517;49.020;12.066;2023-04-29T10:20:13;18.50;99.90
8965;DHT22;4517;49.020;12.066;2023-04-29T10:22:48;18.10;99.90
8965;DHT22;4517;49.020;12.066;2023-04-29T10:25:19;17.90;99.90
8965;DHT22;4517;49.020;12.066;2023-04-29T10:27:46;17.60;99.90
8965;DHT22;4517;49.020;12.066;2023-04-29T10:30:14;17.30;99.90
8965;DHT22;4517;49.020;12.066;2023-04-29T10:32:41;17.20;99.90
8965;DHT22;4517;49.020;12.066;2023-04-29T10:35:12;17.10;99.90
8965;DHT22;4517;49.020;12.066;2023-04-29T10:37:44;17.10;99.90
8965;DHT22;4517;49.020;12.066;2023-04-29T10:40:27;17.30;99.90
8965;DHT22;4517;49.020;12.066;2023-04-29T10:42:56;17.10;99.90
8965;DHT22;4517;49.020;12.066;2023-04-29T10:45:23;16.90;99.90
8965;DHT22;4517;49.020;12.066;2023-04-29T10:48:10;16.90;99.90
8965;DHT22;4517;49.020;12.066;2023-04-29T10:53:13;17.10;99.90
8965;DHT22;4517;49.020;12.066;2023-04-29T10:55:40;17.20;99.90
8965;DHT22;4517;49.020;12.066;2023-04-29T10:58:34;17.40;99.90
8965;DHT22;4517;49.020;12.066;2023-04-29T11:01:00;17.70;99.90
8965;DHT22;4517;49.020;12.066;2023-04-29T11:03:48;18.00;99.90
8965;DHT22;4517;49.020;12.066;2023-04-29T11:06:25;18.20;99.90
8965;DHT22;4517;49.020;12.066;2023-04-29T11:09:18;18.30;99.90
8965;DHT22;4517;49.020;12.066;2023-04-29T11:12:03;18.40;99.90
8965;DHT22;4517;49.020;12.066;2023-04-29T11:14:39;18.50;99.90
8965;DHT22;4517;49.020;12.066;2023-04-29T11:17:12;18.70;99.90
8965;DHT22;4517;49.020;12.066;2023-04-29T11:19:46;18.50;99.90
8965;DHT22;4517;49.020;12.066;2023-04-29T11:22:26;18.60;99.90
8965;DHT22;4517;49.020;12.066;2023-04-29T11:25:05;18.40;99.90
8965;DHT22;4517;49.020;12.066;2023-04-29T11:27:39;18.40;99.90
8965;DHT22;4517;49.020;12.066;2023-04-29T11:30:07;18.70;99.90
8965;DHT22;4517;49.020;12.066;2023-04-29T11:32:37;18.50;99.90
8965;DHT22;4517;49.020;12.066;2023-04-29T11:37:34;17.80;99.90
8965;DHT22;4517;49.020;12.066;2023-04-29T11:39:59;17.70;99.90
8965;DHT22;4517;49.020;12.066;2023-04-29T11:42:25;17.80;99.90
8965;DHT22;4517;49.020;12.066;2023-04-29T11:44:52;18.10;99.90
8965;DHT22;4517;49.020;12.066;2023-04-29T11:47:18;18.60;99.90
8965;DHT22;4517;49.020;12.066;2023-04-29T11:49:45;19.00;99.90
8965;DHT22;4517;49.020;12.066;2023-04-29T11:52:11;19.40;99.90
8965;DHT22;4517;49.020;12.066;2023-04-29T11:54:37;19.30;99.90
8965;DHT22;4517;49.020;12.066;2023-04-29T11:57:05;19.30;99.90
8965;DHT22;4517;49.020;12.066;2023-04-29T11:59:31;19.20;99.90
8965;DHT22;4517;49.020;12.066;2023-04-29T12:02:00;18.90;99.90
8965;DHT22;4517;49.020;12.066;2023-04-29T12:04:25;18.20;99.90
8965;DHT22;4517;49.020;12.066;2023-04-29T12:06:51;17.70;99.90
8965;DHT22;4517;49.020;12.066;2023-04-29T12:09:20;17.40;99.90
8965;DHT22;4517;49.020;12.066;2023-04-29T12:11:47;17.30;99.90
8965;DHT22;4517;49.020;12.066;2023-04-29T12:14:14;17.20;99.90
8965;DHT22;4517;49.020;12.066;2023-04-29T12:16:40;16.90;99.90
8965;DHT22;4517;49.020;12.066;2023-04-29T12:19:06;16.80;99.90
8965;DHT22;4517;49.020;12.066;2023-04-29T12:21:33;17.00;99.90
8965;DHT22;4517;49.020;12.066;2023-04-29T12:24:00;16.90;99.90
8965;DHT22;4517;49.020;12.066;2023-04-29T12:26:29;16.70;99.90
8965;DHT22;4517;49.020;12.066;2023-04-29T12:28:57;16.60;99.90
8965;DHT22;4517;49.020;12.066;2023-04-29T12:31:25;16.50;99.90
8965;DHT22;4517;49.020;12.066;2023-04-29T12:33:56;16.40;99.90
8965;DHT22;4517;49.020;12.066;2023-04-29T12:36:22;16.60;99.90
8965;DHT22;4517;49.020;12.066;2023-04-29T12:38:47;16.80;99.90
8965;DHT22;4517;49.020;12.066;2023-04-29T12:41:14;17.20;99.90
8965;DHT22;4517;49.020;12.066;2023-04-29T12:43:41;17.40;99.90
8965;DHT22;4517;49.020;12.066;2023-04-29T12:46:08;17.50;99.90
8965;DHT22;4517;49.020;12.066;2023-04-29T12:48:38;17.50;99.90
8965;DHT22;4517;49.020;12.066;2023-04-29T12:51:11;17.80;99.90
8965;DHT22;4517;49.020;12.066;2023-04-29T12:53:37;18.10;99.90
8965;DHT22;4517;49.020;12.066;2023-04-29T12:56:04;18.40;99.90
8965;DHT22;4517;49.020;12.066;2023-04-29T12:58:30;18.30;99.90
8965;DHT22;4517;49.020;12.066;2023-04-29T13:00:57;18.10;99.90
8965;DHT22;4517;49.020;12.066;2023-04-29T13:03:22;18.00;99.90
8965;DHT22;4517;49.020;12.066;2023-04-29T13:05:48;17.90;99.90
8965;DHT22;4517;49.020;12.066;2023-04-29T13:08:17;17.70;99.90
8965;DHT22;4517;49.020;12.066;2023-04-29T13:10:43;17.80;99.90
8965;DHT22;4517;49.020;12.066;2023-04-29T13:13:08;17.90;99.90
8965;DHT22;4517;49.020;12.066;2023-04-29T13:15:35;18.10;99.90
8965;DHT22;4517;49.020;12.066;2023-04-29T13:18:01;18.10;99.90
8965;DHT22;4517;49.020;12.066;2023-04-29T13:20:27;18.30;99.90
8965;DHT22;4517;49.020;12.066;2023-04-29T13:22:53;18.70;99.90
8965;DHT22;4517;49.020;12.066;2023-04-29T13:25:18;18.70;99.90
8965;DHT22;4517;49.020;12.066;2023-04-29T13:27:44;18.40;99.90
8965;DHT22;4517;49.020;12.066;2023-04-29T13:30:10;18.20;99.90
8965;DHT22;4517;49.020;12.066;2023-04-29T13:32:35;18.10;99.90
8965;DHT22;4517;49.020;12.066;2023-04-29T13:35:01;18.30;99.90
8965;DHT22;4517;49.020;12.066;2023-04-29T13:37:28;18.20;99.90
8965;DHT22;4517;49.020;12.066;2023-04-29T13:39:54;18.20;99.90
8965;DHT22;4517;49.020;12.066;2023-04-29T13:42:19;18.40;99.90
8965;DHT22;4517;49.020;12.066;2023-04-29T13:44:45;18.30;99.90
8965;DHT22;4517;49.020;12.066;2023-04-29T13:47:11;18.10;99.90
8965;DHT22;4517;49.020;12.066;2023-04-29T13:49:41;18.20;99.90
8965;DHT22;4517;49.020;12.066;2023-04-29T13:52:09;18.30;99.90
8965;DHT22;4517;49.020;12.066;2023-04-29T13:54:35;18.10;99.90
8965;DHT22;4517;49.020;12.066;2023-04-29T13:57:01;18.00;99.90
8965;DHT22;4517;49.020;12.066;2023-04-29T13:59:30;18.00;99.90
8965;DHT22;4517;49.020;12.066;2023-04-29T14:01:57;17.80;99.90
8965;DHT22;4517;49.020;12.066;2023-04-29T14:04:26;17.70;99.90
8965;DHT22;4517;49.020;12.066;2023-04-29T14:06:52;17.80;99.90
8965;DHT22;4517;49.020;12.066;2023-04-29T14:09:19;18.20;99.90
8965;DHT22;4517;49.020;12.066;2023-04-29T14:11:45;18.40;99.90
8965;DHT22;4517;49.020;12.066;2023-04-29T14:14:11;18.00;99.90
8965;DHT22;4517;49.020;12.066;2023-04-29T14:16:36;17.80;99.90
8965;DHT22;4517;49.020;12.066;2023-04-29T14:19:02;17.60;99.90
8965;DHT22;4517;49.020;12.066;2023-04-29T14:21:28;17.50;99.90
8965;DHT22;4517;49.020;12.066;2023-04-29T14:23:54;17.40;99.90
8965;DHT22;4517;49.020;12.066;2023-04-29T14:26:20;17.30;99.90
8965;DHT22;4517;49.020;12.066;2023-04-29T14:28:45;17.00;99.90
8965;DHT22;4517;49.020;12.066;2023-04-29T14:31:11;16.70;99.90
8965;DHT22;4517;49.020;12.066;2023-04-29T14:33:38;16.60;99.90
8965;DHT22;4517;49.020;12.066;2023-04-29T14:36:05;16.40;99.90
8965;DHT22;4517;49.020;12.066;2023-04-29T14:38:31;16.10;99.90
8965;DHT22;4517;49.020;12.066;2023-04-29T14:40:57;16.00;99.90
8965;DHT22;4517;49.020;12.066;2023-04-29T14:43:22;16.00;99.90
8965;DHT22;4517;49.020;12.066;2023-04-29T14:45:49;16.10;99.90
8965;DHT22;4517;49.020;12.066;2023-04-29T14:48:14;16.20;99.90
8965;DHT22;4517;49.020;12.066;2023-04-29T14:50:40;16.50;99.90
8965;DHT22;4517;49.020;12.066;2023-04-29T14:53:05;16.50;99.90
8965;DHT22;4517;49.020;12.066;2023-04-29T14:55:34;16.50;99.90
8965;DHT22;4517;49.020;12.066;2023-04-29T14:57:59;16.50;99.90
8965;DHT22;4517;49.020;12.066;2023-04-29T15:00:30;16.60;99.90
8965;DHT22;4517;49.020;12.066;2023-04-29T15:02:56;16.60;99.90
8965;DHT22;4517;49.020;12.066;2023-04-29T15:05:21;16.70;99.90
8965;DHT22;4517;49.020;12.066;2023-04-29T15:07:48;16.70;99.90
8965;DHT22;4517;49.020;12.066;2023-04-29T15:10:13;16.60;99.90
8965;DHT22;4517;49.020;12.066;2023-04-29T15:12:38;16.60;99.90
8965;DHT22;4517;49.020;12.066;2023-04-29T15:15:08;16.70;99.90
8965;DHT22;4517;49.020;12.066;2023-04-29T15:17:34;16.70;99.90
8965;DHT22;4517;49.020;12.066;2023-04-29T15:19:59;16.60;99.90
8965;DHT22;4517;49.020;12.066;2023-04-29T15:22:25;16.60;99.90
8965;DHT22;4517;49.020;12.066;2023-04-29T15:24:50;16.60;99.90
8965;DHT22;4517;49.020;12.066;2023-04-29T15:27:16;16.50;99.90
8965;DHT22;4517;49.020;12.066;2023-04-29T15:29:42;16.40;99.90
8965;DHT22;4517;49.020;12.066;2023-04-29T15:32:07;16.20;99.90
8965;DHT22;4517;49.020;12.066;2023-04-29T15:34:34;16.10;99.90
8965;DHT22;4517;49.020;12.066;2023-04-29T15:37:00;16.00;99.90
8965;DHT22;4517;49.020;12.066;2023-04-29T15:39:26;16.10;99.90
8965;DHT22;4517;49.020;12.066;2023-04-29T15:41:52;16.20;99.90
8965;DHT22;4517;49.020;12.066;2023-04-29T15:44:18;16.20;99.90
8965;DHT22;4517;49.020;12.066;2023-04-29T15:46:43;16.00;99.90
8965;DHT22;4517;49.020;12.066;2023-04-29T15:49:09;16.10;99.90
8965;DHT22;4517;49.020;12.066;2023-04-29T15:51:34;16.10;99.90
8965;DHT22;4517;49.020;12.066;2023-04-29T15:54:00;16.20;99.90
8965;DHT22;4517;49.020;12.066;2023-04-29T15:56:26;16.20;99.90
8965;DHT22;4517;49.020;12.066;2023-04-29T15:58:51;16.40;99.90
8965;DHT22;4517;49.020;12.066;2023-04-29T16:01:17;16.60;99.90
8965;DHT22;4517;49.020;12.066;2023-04-29T16:03:43;16.40;99.90
8965;DHT22;4517;49.020;12.066;2023-04-29T16:06:09;16.50;99.90
8965;DHT22;4517;49.020;12.066;2023-04-29T16:08:34;16.50;99.90